createdAt,value
2022-11-18T08:51:44.541Z,95529.78
2022-11-18T08:54:52.857Z,95543.13
2022-11-18T09:52:37.394Z,95571.84
2022-11-18T09:55:47.155Z,95571.69
2022-11-18T09:59:12.024Z,95579.56
2022-11-18T10:03:32.024Z,95583.69
2022-11-18T10:07:05.500Z,95590.75
2022-11-18T10:18:59.042Z,95594.38
2022-11-18T10:25:20.424Z,95594.09
2022-11-18T10:32:25.122Z,95605.22
2022-11-18T10:43:43.432Z,95612.94
2022-11-18T10:47:12.835Z,95616.69
2022-11-18T10:49:45.318Z,95614.50
2022-11-18T10:52:19.867Z,95610.44
2022-11-18T10:55:27.673Z,95618.97
2022-11-18T10:57:59.690Z,95615.06
2022-11-18T11:00:53.165Z,95610.19
2022-11-18T11:03:38.481Z,95612.19
2022-11-18T11:06:43.247Z,95611.75
2022-11-18T11:12:19.734Z,95594.97
2022-11-18T11:14:52.309Z,95599.22
2022-11-18T11:17:30.452Z,95597.59
2022-11-18T11:20:05.788Z,95600.41
2022-11-18T11:22:34.475Z,95606.41
2022-11-18T11:25:20.440Z,95605.81
2022-11-18T11:31:14.166Z,95611.16
2022-11-18T11:33:54.876Z,95610.19
2022-11-18T11:36:42.644Z,95613.38
2022-11-18T11:39:52.982Z,95605.50
2022-11-18T11:42:37.649Z,95610.66
2022-11-18T11:45:33.779Z,95609.28
2022-11-18T11:50:31.099Z,95611.88
2022-11-18T11:52:24.231Z,95611.53
2022-11-18T11:55:16.359Z,95613.91
2022-11-18T11:58:14.200Z,95608.06
2022-11-18T12:00:57.094Z,95618.16
2022-11-18T12:04:29.513Z,95615.31
2022-11-18T12:07:59.020Z,95623.66
2022-11-18T12:19:20.474Z,95615.81
2022-11-18T12:28:23.534Z,95609.50
2022-11-18T12:41:00.841Z,95631.22
2022-11-18T12:44:09.760Z,95633.25
2022-11-18T12:46:56.295Z,95642.19
2022-11-18T12:50:13.357Z,95647.09
2022-11-18T12:52:54.868Z,95655.25
2022-11-18T12:55:30.070Z,95658.53
2022-11-18T12:57:58.042Z,95650.22
2022-11-18T13:00:32.608Z,95651.91
2022-11-18T13:03:03.409Z,95655.06
2022-11-18T13:05:33.304Z,95656.81
2022-11-18T13:08:17.163Z,95658.69
2022-11-18T13:10:53.177Z,95664.50
2022-11-18T13:13:35.823Z,95666.38
2022-11-18T13:20:58.299Z,95669.81
2022-11-18T13:23:50.024Z,95667.13
2022-11-18T13:26:21.197Z,95664.41
2022-11-18T13:29:02.355Z,95664.47
2022-11-18T13:31:34.726Z,95668.09
2022-11-18T13:34:03.978Z,95672.13
2022-11-18T13:36:33.747Z,95669.16
2022-11-18T13:42:00.058Z,95673.56
2022-11-18T13:44:30.174Z,95670.41
2022-11-18T13:47:05.919Z,95665.69
2022-11-18T13:49:49.944Z,95677.16
2022-11-18T13:52:26.093Z,95676.78
2022-11-18T13:54:55.240Z,95674.84
2022-11-18T13:57:26.329Z,95680.03
2022-11-18T13:59:57.722Z,95679.03
2022-11-18T14:02:30.772Z,95675.28
2022-11-18T14:05:00.284Z,95678.25
2022-11-18T14:07:32.806Z,95681.41
2022-11-18T14:10:02.839Z,95677.00
2022-11-18T14:12:34.658Z,95691.50
2022-11-18T14:15:24.383Z,95685.59
2022-11-18T14:17:55.232Z,95693.50
2022-11-18T14:20:25.262Z,95693.94
2022-11-18T14:23:14.958Z,95694.16
2022-11-18T14:25:45.136Z,95698.69
2022-11-18T14:28:22.530Z,95701.56
2022-11-18T14:30:59.716Z,95704.41
2022-11-18T14:33:29.536Z,95708.56
2022-11-18T14:35:59.998Z,95709.44
2022-11-18T14:38:57.608Z,95706.94
2022-11-18T14:41:50.575Z,95703.69
2022-11-18T14:44:19.591Z,95708.03
